createdAt,value
2022-09-23T00:01:39.161Z,9.60
2022-09-23T00:04:07.050Z,11.32
2022-09-23T00:06:33.547Z,7.57
2022-09-23T00:09:00.173Z,7.63
2022-09-23T00:11:28.079Z,8.82
2022-09-23T00:13:55.609Z,8.57
2022-09-23T00:16:23.604Z,8.23
2022-09-23T00:18:50.529Z,11.20
2022-09-23T00:21:19.158Z,10.25
2022-09-23T00:23:45.638Z,9.25
2022-09-23T00:26:13.201Z,7.90
2022-09-23T00:28:40.375Z,7.80
2022-09-23T00:31:08.686Z,8.15
2022-09-23T00:33:35.243Z,8.18
2022-09-23T00:36:02.788Z,9.77
2022-09-23T00:38:30.665Z,9.45
2022-09-23T00:40:58.383Z,8.20
2022-09-23T00:43:37.100Z,8.50
2022-09-23T00:46:03.798Z,11.38
2022-09-23T00:48:30.386Z,9.63
2022-09-23T00:50:56.863Z,10.55
2022-09-23T00:53:26.587Z,9.60
2022-09-23T00:55:55.998Z,9.68
2022-09-23T00:58:25.074Z,11.43
2022-09-23T01:00:51.712Z,13.02
2022-09-23T01:03:19.685Z,9.77
2022-09-23T01:05:46.471Z,12.57
2022-09-23T01:08:14.118Z,11.60
2022-09-23T01:10:43.092Z,11.88
2022-09-23T01:13:15.973Z,10.07
2022-09-23T01:15:47.112Z,11.30
2022-09-23T01:18:18.262Z,10.48
2022-09-23T01:20:59.253Z,10.57
2022-09-23T01:23:36.112Z,12.00
2022-09-23T01:26:10.536Z,11.80
2022-09-23T01:28:49.384Z,10.77
2022-09-23T01:31:21.121Z,10.15
2022-09-23T01:33:51.896Z,12.10
2022-09-23T01:36:21.757Z,12.05
2022-09-23T01:38:52.711Z,13.27
2022-09-23T01:41:28.751Z,9.75
2022-09-23T01:44:00.125Z,12.60
2022-09-23T01:46:31.558Z,10.65
2022-09-23T01:49:02.565Z,11.68
2022-09-23T01:51:31.005Z,12.57
2022-09-23T01:54:03.322Z,11.38
2022-09-23T01:56:31.189Z,11.80
2022-09-23T01:59:01.560Z,14.25
2022-09-23T02:01:30.709Z,11.93
2022-09-23T02:04:01.026Z,9.85
2022-09-23T02:06:29.423Z,14.63
2022-09-23T02:08:58.305Z,13.25
2022-09-23T02:11:24.951Z,11.30
2022-09-23T02:13:53.768Z,12.27
2022-09-23T02:16:24.831Z,14.63
2022-09-23T02:18:53.982Z,11.63
2022-09-23T02:21:21.902Z,15.73
2022-09-23T02:23:50.667Z,14.20
2022-09-23T02:26:19.739Z,16.63
2022-09-23T02:28:51.067Z,12.45
2022-09-23T02:31:21.643Z,14.45
2022-09-23T02:33:54.246Z,16.20
2022-09-23T02:36:26.131Z,13.70
2022-09-23T02:38:54.321Z,14.32
2022-09-23T02:41:26.555Z,15.32
2022-09-23T02:43:54.875Z,14.10
2022-09-23T02:46:21.748Z,11.95
2022-09-23T02:48:50.440Z,13.57
2022-09-23T02:51:17.029Z,11.57
2022-09-23T02:53:45.876Z,12.77
2022-09-23T02:56:14.937Z,13.77
2022-09-23T02:58:41.519Z,11.65
2022-09-23T03:01:11.574Z,11.50
2022-09-23T03:03:41.106Z,16.20
2022-09-23T03:06:10.049Z,13.50
2022-09-23T03:08:42.899Z,13.68
2022-09-23T03:11:11.689Z,11.52
2022-09-23T03:13:46.759Z,17.23
2022-09-23T03:16:18.479Z,12.40
2022-09-23T03:18:48.792Z,14.38
2022-09-23T03:21:18.057Z,12.45
2022-09-23T03:23:45.048Z,11.57
2022-09-23T03:26:14.760Z,11.38
2022-09-23T03:28:43.712Z,10.95
2022-09-23T03:31:10.875Z,10.15
2022-09-23T03:33:38.683Z,11.15
2022-09-23T03:36:26.207Z,12.02
2022-09-23T03:38:57.624Z,10.40
2022-09-23T03:41:28.940Z,10.75
2022-09-23T03:43:57.637Z,12.50
2022-09-23T03:46:25.101Z,10.80
2022-09-23T03:48:51.550Z,10.82
2022-09-23T03:51:20.765Z,15.27
2022-09-23T03:53:48.227Z,11.73
2022-09-23T03:56:14.787Z,11.50
2022-09-23T03:58:44.006Z,13.20
2022-09-23T04:01:10.552Z,12.88
2022-09-23T04:03:37.100Z,13.02
2022-09-23T04:06:03.683Z,11.05
2022-09-23T04:08:30.135Z,12.27
2022-09-23T04:10:59.306Z,12.27
2022-09-23T04:13:25.784Z,12.25
2022-09-23T04:15:53.628Z,13.20
2022-09-23T04:18:20.811Z,9.63
2022-09-23T04:20:47.272Z,14.52
2022-09-23T04:23:13.786Z,11.18
2022-09-23T04:25:44.157Z,12.00
2022-09-23T04:28:10.622Z,14.80
2022-09-23T04:30:38.674Z,12.45
2022-09-23T04:33:06.464Z,11.75
2022-09-23T04:35:36.644Z,10.68
2022-09-23T04:38:06.164Z,10.93
2022-09-23T04:40:33.032Z,11.02
2022-09-23T04:42:59.502Z,14.50
2022-09-23T04:45:26.332Z,13.88
2022-09-23T04:47:52.894Z,12.20
2022-09-23T04:50:21.112Z,10.88
2022-09-23T04:52:47.524Z,12.27
2022-09-23T04:55:13.993Z,12.75
2022-09-23T04:57:40.461Z,12.38
2022-09-23T05:00:07.639Z,11.98
2022-09-23T05:02:35.682Z,9.43
2022-09-23T05:05:02.212Z,10.68
2022-09-23T05:07:30.067Z,10.45
2022-09-23T05:09:56.534Z,9.60
2022-09-23T05:12:23.016Z,9.57
2022-09-23T05:14:49.492Z,11.43
2022-09-23T05:17:15.976Z,11.45
2022-09-23T05:19:42.546Z,12.80
2022-09-23T05:22:09.011Z,10.90
2022-09-23T05:24:36.874Z,13.18
2022-09-23T05:27:05.560Z,11.65
2022-09-23T05:29:32.177Z,11.65
2022-09-23T05:31:58.732Z,12.70
2022-09-23T05:34:25.462Z,14.02
2022-09-23T05:36:51.981Z,10.90
2022-09-23T05:39:18.462Z,12.82
2022-09-23T05:41:46.481Z,13.57
2022-09-23T05:44:13.030Z,12.52
2022-09-23T05:46:39.607Z,11.70
2022-09-23T05:49:06.458Z,11.38
2022-09-23T05:51:34.681Z,18.15
2022-09-23T05:54:04.038Z,16.85
2022-09-23T05:56:31.711Z,14.48
2022-09-23T05:59:00.437Z,12.48
2022-09-23T06:01:28.206Z,11.50
2022-09-23T06:03:55.407Z,23.25
2022-09-23T06:06:26.384Z,22.45
2022-09-23T06:08:52.886Z,23.17
2022-09-23T06:11:19.448Z,20.77
2022-09-23T06:13:45.936Z,20.98
2022-09-23T06:16:14.515Z,18.33
2022-09-23T06:18:41.504Z,14.98
2022-09-23T06:21:08.864Z,17.90
2022-09-23T06:23:38.513Z,17.33
2022-09-23T06:26:06.823Z,20.17
2022-09-23T06:28:34.192Z,19.75
2022-09-23T06:31:01.122Z,20.25
2022-09-23T06:33:35.785Z,17.58
2022-09-23T06:36:04.519Z,15.77
2022-09-23T06:38:32.076Z,15.98
2022-09-23T06:40:58.625Z,16.15
2022-09-23T06:43:25.974Z,16.02
2022-09-23T06:45:52.691Z,13.25
2022-09-23T06:48:19.217Z,13.48
2022-09-23T06:50:49.299Z,14.88
2022-09-23T06:53:15.910Z,17.92
2022-09-23T06:55:43.174Z,16.42
2022-09-23T06:58:09.759Z,15.90
2022-09-23T07:00:36.266Z,15.70
2022-09-23T07:03:06.414Z,13.73
2022-09-23T07:05:32.932Z,14.50
2022-09-23T07:08:01.068Z,11.85
2022-09-23T07:10:31.061Z,14.13
2022-09-23T07:13:01.216Z,15.30
2022-09-23T07:15:27.695Z,14.48
2022-09-23T07:17:54.193Z,12.05
2022-09-23T07:20:20.674Z,13.93
2022-09-23T07:22:49.048Z,15.35
2022-09-23T07:25:17.142Z,11.57
2022-09-23T07:27:43.636Z,10.20
2022-09-23T07:30:21.256Z,12.35
2022-09-23T07:32:50.762Z,11.68
2022-09-23T07:35:17.320Z,12.98
2022-09-23T07:37:43.826Z,12.30
2022-09-23T07:40:10.575Z,11.27
2022-09-23T07:42:40.881Z,11.18
2022-09-23T07:45:08.985Z,12.75
2022-09-23T07:47:35.526Z,12.48
2022-09-23T07:50:02.186Z,11.18
2022-09-23T07:52:28.630Z,13.68
2022-09-23T07:54:55.076Z,9.75
2022-09-23T07:57:21.552Z,13.20
2022-09-23T07:59:49.416Z,9.23
2022-09-23T08:02:16.435Z,10.23
2022-09-23T08:04:43.027Z,10.05
2022-09-23T08:07:12.119Z,10.48
2022-09-23T08:09:41.437Z,10.15
2022-09-23T08:12:11.598Z,7.68
2022-09-23T08:14:40.463Z,9.05
2022-09-23T08:17:08.474Z,9.65
2022-09-23T08:19:35.016Z,12.38
2022-09-23T08:22:01.507Z,8.10
2022-09-23T08:24:30.259Z,10.32
2022-09-23T08:26:57.176Z,8.10
2022-09-23T08:29:25.046Z,8.43
2022-09-23T08:31:51.902Z,10.23
2022-09-23T08:34:20.339Z,7.28
2022-09-23T08:36:47.077Z,7.47
2022-09-23T08:39:15.186Z,6.07
2022-09-23T08:41:45.861Z,7.03
2022-09-23T08:44:16.912Z,9.30
2022-09-23T08:46:46.502Z,6.72
2022-09-23T08:49:17.263Z,9.10
2022-09-23T08:51:46.402Z,11.23
2022-09-23T08:54:13.894Z,7.50
2022-09-23T08:56:43.570Z,9.65
2022-09-23T08:59:13.354Z,7.97
2022-09-23T09:01:42.722Z,7.07
2022-09-23T09:04:15.507Z,7.43
2022-09-23T09:06:52.879Z,8.00
2022-09-23T09:09:24.072Z,9.43
2022-09-23T09:11:52.684Z,7.90
2022-09-23T09:14:23.605Z,7.20
2022-09-23T09:17:00.033Z,9.18
2022-09-23T09:19:41.786Z,5.82
2022-09-23T09:22:12.277Z,7.60
2022-09-23T09:24:40.139Z,8.15
2022-09-23T09:27:10.469Z,10.32
2022-09-23T09:29:41.776Z,6.80
2022-09-23T09:32:14.009Z,6.20
2022-09-23T09:34:43.423Z,6.93
2022-09-23T09:37:14.778Z,4.80
2022-09-23T09:39:42.603Z,7.78
2022-09-23T09:42:13.739Z,5.97
2022-09-23T09:44:42.335Z,8.45
2022-09-23T09:47:19.953Z,6.45
2022-09-23T09:49:49.598Z,8.85
2022-09-23T09:52:21.308Z,8.18
2022-09-23T09:54:49.687Z,6.50
2022-09-23T09:57:18.565Z,7.18
2022-09-23T09:59:45.093Z,7.75
2022-09-23T10:02:23.175Z,5.25
2022-09-23T10:04:55.277Z,8.90
2022-09-23T10:07:24.484Z,8.38
2022-09-23T10:09:52.340Z,5.97
2022-09-23T10:12:19.985Z,9.05
2022-09-23T10:14:47.185Z,6.57
2022-09-23T10:17:15.902Z,4.78
2022-09-23T10:19:45.756Z,6.25
2022-09-23T10:22:16.683Z,7.40
2022-09-23T10:24:47.815Z,8.18
2022-09-23T10:27:16.981Z,4.60
2022-09-23T10:29:49.206Z,4.97
2022-09-23T10:32:20.591Z,4.47
2022-09-23T10:34:48.992Z,9.57
2022-09-23T10:37:17.473Z,7.60
2022-09-23T10:40:02.933Z,4.07
2022-09-23T10:42:57.001Z,6.10
2022-09-23T10:45:44.333Z,7.30
2022-09-23T10:48:15.654Z,6.82
2022-09-23T10:50:46.036Z,5.60
2022-09-23T10:53:15.332Z,6.28
2022-09-23T10:55:52.822Z,6.53
2022-09-23T10:58:47.736Z,8.15
2022-09-23T11:01:19.640Z,7.25
2022-09-23T11:04:04.722Z,8.93
2022-09-23T11:06:37.240Z,7.90
2022-09-23T11:09:23.705Z,6.13
2022-09-23T11:11:56.387Z,8.07
2022-09-23T11:14:34.097Z,8.07
2022-09-23T11:17:08.250Z,5.32
2022-09-23T11:19:45.409Z,9.10
2022-09-23T11:22:20.163Z,8.70
2022-09-23T11:25:16.864Z,9.38
2022-09-23T11:27:59.356Z,8.48
2022-09-23T11:30:30.909Z,7.32
2022-09-23T11:33:04.480Z,8.07
2022-09-23T11:35:34.125Z,8.32
2022-09-23T11:38:05.163Z,12.65
2022-09-23T11:40:34.017Z,8.60
2022-09-23T11:43:04.162Z,10.00
2022-09-23T11:45:33.666Z,7.43
2022-09-23T11:48:02.398Z,8.85
2022-09-23T11:50:31.978Z,7.95
2022-09-23T11:53:02.235Z,8.88
2022-09-23T11:55:32.314Z,9.93
2022-09-23T11:58:01.851Z,8.18
2022-09-23T12:00:34.213Z,7.63
2022-09-23T12:03:06.733Z,11.30
2022-09-23T12:05:35.481Z,8.23
2022-09-23T12:08:05.133Z,14.05
2022-09-23T12:10:37.522Z,9.95
2022-09-23T12:13:07.269Z,12.15
2022-09-23T12:15:41.747Z,11.80
2022-09-23T12:18:22.357Z,11.27
2022-09-23T12:20:56.629Z,13.02
2022-09-23T12:23:32.332Z,9.52
2022-09-23T12:26:01.905Z,7.57
2022-09-23T12:28:29.620Z,8.35
2022-09-23T12:30:58.414Z,9.80
2022-09-23T12:33:27.684Z,8.13
2022-09-23T12:35:55.019Z,10.13
2022-09-23T12:38:25.142Z,9.18
2022-09-23T12:40:53.178Z,8.93
2022-09-23T12:43:29.749Z,11.07
2022-09-23T12:46:19.568Z,11.48
2022-09-23T12:48:57.927Z,13.30
2022-09-23T12:51:24.810Z,7.90
2022-09-23T12:53:56.312Z,9.45
2022-09-23T12:56:24.691Z,8.43
2022-09-23T12:59:02.383Z,12.10
2022-09-23T13:01:35.238Z,7.35
2022-09-23T13:04:21.427Z,9.30
2022-09-23T13:06:53.188Z,9.15
2022-09-23T13:09:21.984Z,10.10
2022-09-23T13:11:48.764Z,6.63
2022-09-23T13:14:17.739Z,7.57
2022-09-23T13:16:45.861Z,10.38
2022-09-23T13:19:27.590Z,5.90
2022-09-23T13:22:09.261Z,12.05
2022-09-23T13:24:43.541Z,11.10
2022-09-23T13:27:15.458Z,12.25
2022-09-23T13:29:43.570Z,7.20
2022-09-23T13:32:11.704Z,11.52
2022-09-23T13:34:39.929Z,6.22
2022-09-23T13:37:21.486Z,10.77
2022-09-23T13:39:48.968Z,6.72
2022-09-23T13:42:20.090Z,8.07
2022-09-23T13:44:46.792Z,12.32
2022-09-23T13:47:13.672Z,7.93
2022-09-23T13:49:41.082Z,11.32
2022-09-23T13:52:23.259Z,8.40
2022-09-23T13:54:51.219Z,10.27
2022-09-23T13:57:27.844Z,10.57
2022-09-23T13:59:54.327Z,9.27
2022-09-23T14:02:20.943Z,8.40
2022-09-23T14:04:47.442Z,9.65
2022-09-23T14:07:15.196Z,10.98
2022-09-23T14:09:42.902Z,13.70
2022-09-23T14:12:11.064Z,10.45
2022-09-23T14:14:38.482Z,9.88
2022-09-23T14:17:05.806Z,14.90
2022-09-23T14:19:32.750Z,10.18
2022-09-23T14:22:00.171Z,11.65
2022-09-23T14:24:31.760Z,12.07
2022-09-23T14:26:59.683Z,12.80
2022-09-23T14:29:29.255Z,11.55
2022-09-23T14:31:57.166Z,9.88
2022-09-23T14:34:44.060Z,6.43
2022-09-23T14:37:43.984Z,13.10
2022-09-23T14:40:12.928Z,7.65
2022-09-23T14:42:41.219Z,7.45
2022-09-23T14:45:13.559Z,10.65
2022-09-23T14:47:42.649Z,9.80
2022-09-23T14:50:33.147Z,9.95
2022-09-23T14:52:59.632Z,12.73
2022-09-23T14:55:28.134Z,10.38
2022-09-23T14:58:01.378Z,11.75
2022-09-23T15:00:29.337Z,12.00
2022-09-23T15:03:00.161Z,9.65
2022-09-23T15:05:31.841Z,10.40
2022-09-23T15:08:01.108Z,10.13
2022-09-23T15:10:28.777Z,10.93
2022-09-23T15:13:01.418Z,10.93
2022-09-23T15:15:29.365Z,13.95
2022-09-23T15:17:56.040Z,12.38
2022-09-23T15:20:23.535Z,13.10
2022-09-23T15:22:50.939Z,11.93
2022-09-23T15:25:18.637Z,13.55
2022-09-23T15:27:55.587Z,8.23
2022-09-23T15:30:22.359Z,11.10
2022-09-23T15:32:50.407Z,10.52
2022-09-23T15:35:18.806Z,11.38
2022-09-23T15:37:46.953Z,9.50
2022-09-23T15:40:19.328Z,14.32
2022-09-23T15:42:51.210Z,11.32
2022-09-23T15:45:19.902Z,14.85
2022-09-23T15:47:47.095Z,12.82
2022-09-23T15:50:15.140Z,14.70
2022-09-23T15:52:44.999Z,12.50
2022-09-23T15:55:15.329Z,12.23
2022-09-23T15:57:41.777Z,11.70
2022-09-23T16:00:11.424Z,10.77
2022-09-23T16:02:39.404Z,11.48
2022-09-23T16:05:07.700Z,15.75
2022-09-23T16:07:36.326Z,11.27
2022-09-23T16:10:03.023Z,11.07
2022-09-23T16:12:30.075Z,14.10
2022-09-23T16:14:56.631Z,15.13
2022-09-23T16:17:23.204Z,14.32
2022-09-23T16:19:49.663Z,12.10
2022-09-23T16:22:16.656Z,14.20
2022-09-23T16:24:44.466Z,15.73
2022-09-23T16:27:12.557Z,15.82
2022-09-23T16:29:39.042Z,16.08
2022-09-23T16:32:05.564Z,13.75
2022-09-23T16:34:34.724Z,17.60
2022-09-23T16:37:01.232Z,15.98
2022-09-23T16:39:27.685Z,15.52
2022-09-23T16:41:55.907Z,17.23
2022-09-23T16:44:22.450Z,19.15
2022-09-23T16:46:49.143Z,15.88
2022-09-23T16:49:15.642Z,22.63
2022-09-23T16:51:42.192Z,19.15
2022-09-23T16:54:10.296Z,16.20
2022-09-23T16:56:37.491Z,15.38
2022-09-23T16:59:05.364Z,21.20
2022-09-23T17:01:50.368Z,24.35
2022-09-23T17:04:18.286Z,19.40
2022-09-23T17:06:46.369Z,21.33
2022-09-23T17:09:12.893Z,18.65
2022-09-23T17:11:39.445Z,20.02
2022-09-23T17:14:07.260Z,20.75
2022-09-23T17:16:34.610Z,18.90
2022-09-23T17:19:06.299Z,17.00
2022-09-23T17:21:32.868Z,19.27
2022-09-23T17:23:59.335Z,20.95
2022-09-23T17:26:26.504Z,19.08
2022-09-23T17:28:56.666Z,21.63
2022-09-23T17:31:25.056Z,19.98
2022-09-23T17:33:51.691Z,22.33
2022-09-23T17:36:18.357Z,21.40
2022-09-23T17:38:45.461Z,17.23
2022-09-23T17:41:12.747Z,18.80
2022-09-23T17:43:39.331Z,17.92
2022-09-23T17:46:06.777Z,19.13
2022-09-23T17:48:35.648Z,20.02
2022-09-23T17:51:04.069Z,20.58
2022-09-23T17:53:31.381Z,18.88
2022-09-23T17:55:59.034Z,22.58
2022-09-23T17:58:26.291Z,19.83
2022-09-23T18:00:52.863Z,28.85
2022-09-23T18:03:19.459Z,17.35
2022-09-23T18:05:47.329Z,20.48
2022-09-23T18:08:13.874Z,20.10
2022-09-23T18:10:40.378Z,19.17
2022-09-23T18:13:07.044Z,19.48
2022-09-23T18:15:35.129Z,20.85
2022-09-23T18:18:01.644Z,20.55
2022-09-23T18:20:28.120Z,20.90
2022-09-23T18:22:56.039Z,21.48
2022-09-23T18:25:38.801Z,18.85
2022-09-23T18:28:06.312Z,18.45
2022-09-23T18:30:33.603Z,17.75
2022-09-23T18:33:00.165Z,19.30
2022-09-23T18:35:26.835Z,17.25
2022-09-23T18:37:53.605Z,20.33
2022-09-23T18:40:21.555Z,20.08
2022-09-23T18:42:48.434Z,20.02
2022-09-23T18:45:14.959Z,21.73
2022-09-23T18:48:00.055Z,19.67
2022-09-23T18:50:43.203Z,22.85
2022-09-23T18:53:10.337Z,19.77
2022-09-23T18:55:38.250Z,20.58
2022-09-23T18:58:07.423Z,19.73
2022-09-23T19:00:34.722Z,26.88
2022-09-23T19:03:01.393Z,27.23
2022-09-23T19:05:28.424Z,27.98
2022-09-23T19:07:55.421Z,23.45
2022-09-23T19:10:22.214Z,27.38
2022-09-23T19:12:50.153Z,28.38
2022-09-23T19:15:16.888Z,25.35
2022-09-23T19:17:43.884Z,24.95
2022-09-23T19:20:10.428Z,24.92
2022-09-23T19:22:36.958Z,23.75
2022-09-23T19:25:04.305Z,21.67
2022-09-23T19:27:30.746Z,22.75
2022-09-23T19:29:58.626Z,19.02
2022-09-23T19:32:26.748Z,20.20
2022-09-23T19:34:53.705Z,20.08
2022-09-23T19:37:20.271Z,22.10
2022-09-23T19:39:47.662Z,21.58
2022-09-23T19:42:14.205Z,23.45
2022-09-23T19:44:40.990Z,20.40
2022-09-23T19:47:15.394Z,22.45
2022-09-23T19:49:42.117Z,20.27
2022-09-23T19:52:08.628Z,22.55
2022-09-23T19:54:35.114Z,20.27
2022-09-23T19:57:01.716Z,27.13
2022-09-23T19:59:28.149Z,20.00
2022-09-23T20:01:54.660Z,23.15
2022-09-23T20:04:22.767Z,20.75
2022-09-23T20:06:49.608Z,21.50
2022-09-23T20:09:16.175Z,22.27
2022-09-23T20:11:43.017Z,25.55
2022-09-23T20:14:10.097Z,25.60
2022-09-23T20:16:37.203Z,22.98
2022-09-23T20:19:05.620Z,26.50
2022-09-23T20:21:34.222Z,25.98
2022-09-23T20:24:01.991Z,24.75
2022-09-23T20:26:46.919Z,23.98
2022-09-23T20:29:13.499Z,24.60
2022-09-23T20:31:42.998Z,25.60
2022-09-23T20:34:10.823Z,26.15
2022-09-23T20:36:40.975Z,25.63
2022-09-23T20:39:07.677Z,25.02
2022-09-23T20:41:37.297Z,26.38
2022-09-23T20:44:05.823Z,27.45
2022-09-23T20:46:32.474Z,23.55
2022-09-23T20:48:59.001Z,25.10
2022-09-23T20:51:26.283Z,22.55
2022-09-23T20:53:54.128Z,24.02
2022-09-23T20:56:21.386Z,24.80
2022-09-23T20:58:48.712Z,22.70
2022-09-23T21:01:15.794Z,22.17
2022-09-23T21:03:43.760Z,21.00
2022-09-23T21:06:11.544Z,20.85
2022-09-23T21:08:38.061Z,22.63
2022-09-23T21:11:07.917Z,21.55
2022-09-23T21:13:34.746Z,22.55
2022-09-23T21:16:02.279Z,19.50
2022-09-23T21:18:28.792Z,23.90
2022-09-23T21:20:55.913Z,21.92
2022-09-23T21:23:23.985Z,22.33
2022-09-23T21:25:50.849Z,21.52
2022-09-23T21:28:18.915Z,22.88
2022-09-23T21:30:48.583Z,25.80
2022-09-23T21:33:18.278Z,21.33
2022-09-23T21:35:44.752Z,26.75
2022-09-23T21:38:11.222Z,23.40
2022-09-23T21:40:56.033Z,29.00
2022-09-23T21:43:24.020Z,20.20
2022-09-23T21:45:58.139Z,24.85
2022-09-23T21:48:24.657Z,23.58
2022-09-23T21:50:54.047Z,24.05
2022-09-23T21:53:20.645Z,20.23
2022-09-23T21:55:48.774Z,22.13
2022-09-23T21:58:15.287Z,19.38
2022-09-23T22:00:43.999Z,21.35
2022-09-23T22:03:10.959Z,21.95
2022-09-23T22:05:43.995Z,19.73
2022-09-23T22:08:10.690Z,19.30
2022-09-23T22:10:37.421Z,21.92
2022-09-23T22:13:03.959Z,20.73
2022-09-23T22:15:33.542Z,19.25
2022-09-23T22:18:01.372Z,18.90
2022-09-23T22:20:28.144Z,19.92
2022-09-23T22:22:54.626Z,19.33
2022-09-23T22:25:21.163Z,21.00
2022-09-23T22:28:06.319Z,20.48
2022-09-23T22:30:51.092Z,23.02
2022-09-23T22:33:19.042Z,20.87
2022-09-23T22:35:45.531Z,20.60
2022-09-23T22:38:12.546Z,20.08
2022-09-23T22:40:42.690Z,20.38
2022-09-23T22:43:09.242Z,21.80
2022-09-23T22:45:37.609Z,24.73
2022-09-23T22:48:04.499Z,27.05
2022-09-23T22:50:32.310Z,25.17
2022-09-23T22:52:58.818Z,31.13
2022-09-23T22:55:25.401Z,29.02
2022-09-23T22:57:51.846Z,32.67
2022-09-23T23:00:18.443Z,29.63
2022-09-23T23:02:44.934Z,32.25
2022-09-23T23:05:11.634Z,30.85
2022-09-23T23:07:39.502Z,38.13
2022-09-23T23:10:07.269Z,36.17
2022-09-23T23:12:33.858Z,33.63
2022-09-23T23:15:00.368Z,32.28
2022-09-23T23:17:26.844Z,34.03
2022-09-23T23:19:53.794Z,28.95
2022-09-23T23:22:20.282Z,33.15
2022-09-23T23:24:48.114Z,30.10
2022-09-23T23:27:14.703Z,29.52
2022-09-23T23:29:41.206Z,24.20
2022-09-23T23:32:09.704Z,25.75
2022-09-23T23:34:36.273Z,24.48
2022-09-23T23:37:02.817Z,21.65
2022-09-23T23:39:29.325Z,21.42
2022-09-23T23:41:57.817Z,20.63
2022-09-23T23:44:25.119Z,20.48
2022-09-23T23:46:51.754Z,25.58
2022-09-23T23:49:18.292Z,22.05
2022-09-23T23:51:44.838Z,22.63
2022-09-23T23:54:11.359Z,22.40
2022-09-23T23:56:37.866Z,21.80
2022-09-23T23:59:05.747Z,21.90
